Time;durP1;ratioP1;P1;durP2;ratioP2;P2;SDS_P1;SDS_P2;PMS_P1;PMS_P2;Temp;Humidity;BMP_temperature;BMP_pressure;BME280_temperature;BME280_humidity;BME280_pressure;Samples;Min_cycle;Max_cycle;Signal;HPM_P1;HPM_P2
2022/01/18 00:01:49;;;;;;;12.63;2.65;;;;;;;-2.42;100.00;99535.97;4355547;32;20083;-84
2022/01/18 00:04:16;;;;;;;15.20;3.00;;;;;;;-2.39;100.00;99540.94;4355089;32;20160;-83
2022/01/18 00:06:47;;;;;;;11.35;3.75;;;;;;;-2.72;100.00;99487.94;4352556;32;20462;-84
2022/01/18 00:09:13;;;;;;;11.48;3.03;;;;;;;-2.46;100.00;99538.06;4357133;32;20062;-84
2022/01/18 00:11:48;;;;;;;8.13;2.87;;;;;;;-2.29;100.00;99546.94;4353077;32;20200;-81
2022/01/18 00:17:25;;;;;;;13.13;2.37;;;;;;;-2.35;100.00;99550.19;4355351;32;20036;-83
2022/01/18 00:19:56;;;;;;;14.48;3.30;;;;;;;-2.40;100.00;99557.72;4357842;32;20035;-84
2022/01/18 00:22:26;;;;;;;23.25;3.00;;;;;;;-2.53;100.00;99559.94;4357152;32;20112;-84
2022/01/18 00:24:53;;;;;;;16.80;3.85;;;;;;;-2.37;100.00;99570.62;4350828;32;20036;-82
2022/01/18 00:27:20;;;;;;;10.80;2.90;;;;;;;-2.40;100.00;99550.63;4356531;32;20059;-83
2022/01/18 00:30:02;;;;;;;17.40;3.10;;;;;;;-2.90;100.00;99485.31;4356055;32;20062;-84
2022/01/18 00:33:14;;;;;;;;;;;;;;;-2.50;100.00;99560.47;4356425;32;20048;-83
2022/01/18 00:35:21;;;;;;;9.52;2.50;;;;;;;-2.47;100.00;99590.94;4359705;32;19945;-83
2022/01/18 00:37:54;;;;;;;9.98;3.62;;;;;;;-2.51;100.00;99576.44;4357620;32;20463;-83
2022/01/18 00:40:21;;;;;;;23.58;3.60;;;;;;;-2.45;100.00;99584.56;4343922;32;20048;-82
2022/01/18 00:42:48;;;;;;;7.78;3.42;;;;;;;-2.50;100.00;99570.19;4356065;32;20040;-82
2022/01/18 00:45:14;;;;;;;19.90;3.10;;;;;;;-2.74;100.00;99532.09;4367075;32;20333;-83
2022/01/18 00:47:41;;;;;;;13.65;3.17;;;;;;;-2.68;100.00;99549.94;4356260;32;20040;-83
2022/01/18 00:50:09;;;;;;;17.92;4.25;;;;;;;-2.52;100.00;99593.22;4355773;32;20345;-84
2022/01/18 00:52:41;;;;;;;17.60;3.47;;;;;;;-2.59;100.00;99588.53;4353621;32;20031;-83
2022/01/18 00:55:08;;;;;;;;;;;;;;;-2.58;100.00;99573.56;4349123;32;20346;-84
2022/01/18 00:57:35;;;;;;;11.52;2.58;;;;;;;-2.51;100.00;99595.72;4354304;32;20523;-83
2022/01/18 01:00:02;;;;;;;8.48;2.47;;;;;;;-2.56;100.00;99598.78;4356244;32;20036;-83
2022/01/18 01:02:29;;;;;;;16.23;3.80;;;;;;;-2.84;100.00;99562.94;4354847;32;20043;-82
2022/01/18 01:04:55;;;;;;;22.35;3.30;;;;;;;-2.86;100.00;99567.53;4353848;32;20048;-81
2022/01/18 01:07:23;;;;;;;16.15;3.30;;;;;;;-2.72;100.00;99598.66;4355876;32;20065;-83
2022/01/18 01:09:51;;;;;;;20.30;3.78;;;;;;;-2.87;100.00;99579.91;4355466;32;20040;-83
2022/01/18 01:12:23;;;;;;;16.85;3.47;;;;;;;-2.76;100.00;99603.41;4355345;32;20361;-82
2022/01/18 01:14:52;;;;;;;;;;;;;;;-2.65;100.00;99651.59;4353780;32;20361;-84
2022/01/18 01:36:07;;;;;;;6.95;1.87;;;;;;;-3.49;100.00;99490.19;4356079;32;20074;-83
2022/01/18 01:44:36;;;;;;;7.62;2.40;;;;;;;-2.99;100.00;99587.16;4354950;32;20074;-84
2022/01/18 01:46:54;;;;;;;17.15;2.92;;;;;;;-2.85;100.00;99587.66;4354818;32;20063;-84
2022/01/18 01:49:24;;;;;;;12.37;3.33;;;;;;;-2.71;100.00;99621.41;4355421;32;20350;-84
2022/01/18 01:51:50;;;;;;;9.88;2.70;;;;;;;-2.67;100.00;99628.03;4356056;32;20050;-84
2022/01/18 01:54:17;;;;;;;13.25;3.30;;;;;;;-2.66;100.00;99624.41;4355059;32;20110;-83
2022/01/18 01:56:44;;;;;;;16.12;2.78;;;;;;;-2.67;100.00;99628.03;4359907;32;20531;-81
2022/01/18 01:59:11;;;;;;;12.93;2.40;;;;;;;-2.75;100.00;99604.22;4355564;32;20342;-81
2022/01/18 02:01:45;;;;;;;12.02;3.42;;;;;;;-2.80;100.00;99632.84;4356184;32;20085;-81
2022/01/18 02:04:12;;;;;;;10.90;2.50;;;;;;;-2.77;100.00;99643.09;4351837;32;20044;-80
2022/01/18 02:06:39;;;;;;;11.27;2.50;;;;;;;-2.82;100.00;99619.00;4355164;32;20083;-81
2022/01/18 02:09:06;;;;;;;17.77;3.17;;;;;;;-2.76;100.00;99628.91;4354787;32;20086;-81
2022/01/18 02:11:33;;;;;;;12.30;2.85;;;;;;;-2.77;100.00;99637.81;4354825;32;20061;-81
2022/01/18 02:14:01;;;;;;;11.73;3.28;;;;;;;-3.08;100.00;99590.69;4352184;32;20032;-81
2022/01/18 02:22:04;;;;;;;13.32;2.87;;;;;;;-2.76;100.00;99634.19;4355548;32;20870;-81
2022/01/18 02:24:31;;;;;;;17.10;2.75;;;;;;;-3.00;100.00;99593.44;4354850;32;20057;-81
2022/01/18 02:26:58;;;;;;;7.90;2.20;;;;;;;-2.81;100.00;99625.91;4355148;32;20047;-81
2022/01/18 02:29:24;;;;;;;9.95;2.37;;;;;;;-2.75;100.00;99643.75;4352555;32;20109;-81
2022/01/18 02:31:58;;;;;;;9.25;2.60;;;;;;;-2.76;100.00;99663.19;4358276;32;20060;-81
2022/01/18 02:34:25;;;;;;;11.12;2.42;;;;;;;-2.98;100.00;99614.38;4355045;32;20407;-81
2022/01/18 02:36:57;;;;;;;11.73;2.62;;;;;;;-2.73;100.00;99649.69;4359546;32;20480;-80
2022/01/18 02:39:26;;;;;;;13.20;1.80;;;;;;;-2.69;100.00;99655.53;4358779;32;20510;-80
2022/01/18 02:41:56;;;;;;;19.45;2.10;;;;;;;-2.70;100.00;99656.50;4359441;32;20048;-81
2022/01/18 02:44:24;;;;;;;6.78;2.28;;;;;;;-2.89;100.00;99617.91;4358596;32;20051;-82
2022/01/18 02:46:51;;;;;;;10.05;2.40;;;;;;;-2.63;100.00;99655.75;4360039;32;20062;-82
2022/01/18 02:49:17;;;;;;;13.57;2.62;;;;;;;-2.64;100.00;99667.28;4358338;32;20365;-81
2022/01/18 02:51:45;;;;;;;9.95;2.22;;;;;;;-2.89;100.00;99628.44;4359586;32;20149;-81
2022/01/18 02:54:14;;;;;;;19.67;2.75;;;;;;;-2.96;100.00;99604.50;4371743;32;20044;-82
2022/01/18 02:56:49;;;;;;;8.85;2.45;;;;;;;-2.59;100.00;99682.66;4360520;32;20044;-81
2022/01/18 02:59:29;;;;;;;20.80;3.28;;;;;;;-2.64;100.00;99680.44;4356620;32;20036;-81
2022/01/18 03:04:45;;;;;;;17.30;2.50;;;;;;;-2.67;100.00;99680.75;4360193;32;20062;-80
2022/01/18 03:07:13;;;;;;;10.65;2.45;;;;;;;-2.90;100.00;99626.78;4359809;32;20074;-81
2022/01/18 03:09:40;;;;;;;18.15;2.33;;;;;;;-2.82;100.00;99640.91;4359088;32;20052;-82
2022/01/18 03:12:08;;;;;;;8.57;2.42;;;;;;;-2.62;100.00;99673.22;4359338;32;20162;-81
2022/01/18 03:14:35;;;;;;;13.05;2.60;;;;;;;-2.69;100.00;99672.16;4357762;32;20052;-81
2022/01/18 03:17:02;;;;;;;25.98;2.33;;;;;;;-2.71;100.00;99678.56;4359240;32;20067;-81
2022/01/18 03:19:29;;;;;;;19.83;2.87;;;;;;;-2.65;100.00;99683.25;4357872;32;20035;-82
2022/01/18 03:21:57;;;;;;;17.00;2.30;;;;;;;-2.69;100.00;99666.91;4358914;32;20066;-82
2022/01/18 03:29:36;;;;;;;7.10;1.65;;;;;;;-2.78;100.00;99680.97;4359733;32;20118;-80
2022/01/18 03:32:04;;;;;;;21.80;2.10;;;;;;;-2.84;100.00;99668.38;4358035;32;20061;-80
2022/01/18 03:34:30;;;;;;;10.88;2.10;;;;;;;-2.98;100.00;99646.81;4358040;32;20066;-81
2022/01/18 03:36:57;;;;;;;6.05;2.08;;;;;;;-2.93;100.00;99659.56;4359411;32;20081;-81
2022/01/18 03:39:23;;;;;;;9.75;2.45;;;;;;;-2.81;100.00;99690.00;4359778;32;20083;-81
2022/01/18 03:41:55;;;;;;;10.15;2.37;;;;;;;-2.85;100.00;99675.44;4359780;32;20035;-82
2022/01/18 03:44:25;;;;;;;12.02;2.28;;;;;;;-3.04;100.00;99662.38;4354236;32;20031;-81
2022/01/18 03:46:53;;;;;;;33.63;3.35;;;;;;;-2.74;100.00;99706.06;4357768;32;20935;-80
2022/01/18 03:49:23;;;;;;;7.57;2.05;;;;;;;-3.07;100.00;99642.41;4357288;32;20060;-81
2022/01/18 03:51:49;;;;;;;11.80;2.45;;;;;;;-2.82;100.00;99692.78;4356641;32;20353;-81
2022/01/18 03:54:22;;;;;;;20.45;3.33;;;;;;;-3.02;100.00;99655.97;4356346;32;20356;-81
2022/01/18 03:56:49;;;;;;;4.97;1.85;;;;;;;-3.02;100.00;99663.88;4357857;32;20048;-81
2022/01/18 03:59:15;;;;;;;15.55;2.80;;;;;;;-2.87;100.00;99687.09;4357604;32;20408;-80
2022/01/18 04:01:42;;;;;;;11.90;2.75;;;;;;;-2.69;100.00;99703.81;4357676;32;20044;-80
2022/01/18 04:04:08;;;;;;;6.50;2.53;;;;;;;-3.23;100.00;99627.25;4356395;32;20167;-80
2022/01/18 04:06:36;;;;;;;9.38;1.83;;;;;;;-2.71;100.00;99716.31;4357606;32;20067;-80
2022/01/18 04:09:03;;;;;;;14.52;2.55;;;;;;;-2.85;100.00;99693.09;4357906;32;20044;-80
2022/01/18 04:11:31;;;;;;;16.37;2.55;;;;;;;-2.75;100.00;99728.13;4356767;32;20032;-80
2022/01/18 04:13:57;;;;;;;13.30;2.67;;;;;;;-2.68;100.00;99717.81;4356727;32;20035;-82
2022/01/18 04:16:24;;;;;;;14.68;2.80;;;;;;;-2.73;100.00;99728.78;4357026;32;20112;-82
2022/01/18 04:18:58;;;;;;;7.82;1.73;;;;;;;-2.96;100.00;99687.00;4369444;32;20113;-82
2022/01/18 04:26:57;;;;;;;10.88;1.87;;;;;;;-2.67;100.00;99748.47;4357592;32;20052;-84
2022/01/18 04:29:25;;;;;;;12.85;2.60;;;;;;;-2.71;100.00;99726.84;4355878;32;20084;-83
2022/01/18 04:31:51;;;;;;;16.90;4.03;;;;;;;-2.97;100.00;99706.44;4354685;32;20043;-83
2022/01/18 04:34:18;;;;;;;7.70;2.35;;;;;;;-3.06;100.00;99696.78;4355161;32;20062;-82
2022/01/18 04:36:48;;;;;;;20.75;2.55;;;;;;;-2.99;100.00;99671.50;4360415;32;20073;-82
2022/01/18 04:39:16;;;;;;;11.50;2.35;;;;;;;-2.66;100.00;99735.16;4358218;32;20036;-82
2022/01/18 04:41:44;;;;;;;8.05;2.45;;;;;;;-2.61;100.00;99735.53;4357412;32;20069;-81
2022/01/18 04:49:44;;;;;;;5.62;1.98;;;;;;;-2.76;100.00;99737.00;4355549;32;20069;-84
2022/01/18 04:52:12;;;;;;;12.27;3.28;;;;;;;-3.09;100.00;99681.25;4356890;32;20122;-83
2022/01/18 04:54:42;;;;;;;20.80;3.12;;;;;;;-2.66;100.00;99760.69;4356600;32;20485;-82
2022/01/18 04:59:42;;;;;;;11.18;3.08;;;;;;;-2.64;100.00;99774.56;4356229;32;20065;-83
2022/01/18 05:02:08;;;;;;;9.77;2.65;;;;;;;-2.83;100.00;99733.28;4356917;32;20048;-84
2022/01/18 05:04:35;;;;;;;9.25;2.95;;;;;;;-2.62;100.00;99765.50;4353631;32;20048;-83
2022/01/18 05:07:02;;;;;;;7.00;2.50;;;;;;;-2.65;100.00;99768.47;4355954;32;20105;-83
2022/01/18 05:09:29;;;;;;;9.45;3.08;;;;;;;-3.55;100.00;99617.12;4350153;32;20032;-83
2022/01/18 05:12:10;;;;;;;10.75;3.28;;;;;;;-2.67;100.00;99775.66;4346426;32;20451;-83
2022/01/18 05:14:37;;;;;;;7.20;2.70;;;;;;;-2.75;100.00;99763.19;4354516;32;20061;-81
2022/01/18 05:17:13;;;;;;;12.18;3.28;;;;;;;-2.61;100.00;99779.53;4354587;32;20384;-81
2022/01/18 05:20:11;;;;;;;11.73;2.90;;;;;;;-2.74;100.00;99779.87;4355126;32;20065;-81
2022/01/18 05:23:19;;;;;;;9.98;2.87;;;;;;;-2.89;100.00;99761.03;4356095;32;20039;-81
2022/01/18 05:25:21;;;;;;;19.37;3.60;;;;;;;-2.75;100.00;99772.94;4350345;32;20353;-81
2022/01/18 05:27:47;;;;;;;13.98;3.17;;;;;;;-2.69;100.00;99814.53;4364489;32;20077;-81
2022/01/18 05:30:14;;;;;;;13.15;3.45;;;;;;;-2.57;100.00;99808.09;4355638;32;20406;-81
2022/01/18 05:32:40;;;;;;;19.37;3.45;;;;;;;-2.83;100.00;99762.28;4354680;32;20405;-81
2022/01/18 05:35:07;;;;;;;15.73;3.17;;;;;;;-2.58;100.00;99811.72;4354368;32;20040;-80
2022/01/18 05:37:34;;;;;;;12.88;3.60;;;;;;;-2.59;100.00;99815.31;4352727;32;20075;-81
2022/01/18 05:40:01;;;;;;;11.98;3.25;;;;;;;-2.61;100.00;99827.00;4350900;32;20077;-81
2022/01/18 05:42:28;;;;;;;14.38;3.37;;;;;;;-2.86;100.00;99791.56;4352026;32;20054;-81
2022/01/18 05:44:54;;;;;;;19.77;3.33;;;;;;;-2.70;100.00;99802.31;4351282;32;20083;-81
2022/01/18 05:47:21;;;;;;;11.10;3.37;;;;;;;-3.06;100.00;99752.09;4351805;32;20065;-81
2022/01/18 05:49:47;;;;;;;18.08;3.37;;;;;;;-2.61;100.00;99822.53;4351555;32;20059;-81
2022/01/18 05:52:14;;;;;;;8.48;2.40;;;;;;;-2.53;100.00;99835.00;4355515;32;20081;-82
2022/01/18 05:54:41;;;;;;;9.05;2.67;;;;;;;-2.62;100.00;99835.88;4354829;32;20044;-83
2022/01/18 05:57:07;;;;;;;25.48;4.22;;;;;;;-2.53;100.00;99828.91;4353828;32;20058;-81
2022/01/18 05:59:44;;;;;;;13.15;2.85;;;;;;;-2.70;100.00;99802.31;4352169;32;20112;-81
2022/01/18 06:07:50;;;;;;;8.32;2.25;;;;;;;-2.59;100.00;99841.69;4356206;32;20400;-85
2022/01/18 06:10:17;;;;;;;22.02;4.15;;;;;;;-2.65;100.00;99860.75;4355685;32;20376;-85
2022/01/18 06:12:43;;;;;;;14.13;4.35;;;;;;;-2.67;100.00;99843.38;4351860;32;20032;-85
2022/01/18 06:15:10;;;;;;;9.35;3.20;;;;;;;-3.00;100.00;99791.06;4352498;32;20543;-85
2022/01/18 06:17:38;;;;;;;12.35;3.40;;;;;;;-2.62;100.00;99852.50;4355651;32;20078;-85
2022/01/18 06:20:06;;;;;;;9.73;3.00;;;;;;;-2.81;100.00;99823.59;4354927;32;20054;-85
2022/01/18 06:22:33;;;;;;;17.08;3.85;;;;;;;-2.56;100.00;99859.03;4353783;32;20062;-88
2022/01/18 06:25:00;;;;;;;16.05;4.28;;;;;;;-2.77;100.00;99838.16;4355040;32;20032;-84
2022/01/18 06:27:26;;;;;;;23.48;5.10;;;;;;;-2.75;100.00;99825.66;4365409;32;20099;-84
2022/01/18 06:29:55;;;;;;;14.70;3.80;;;;;;;-2.54;100.00;99864.16;4359022;32;20428;-88
2022/01/18 06:32:22;;;;;;;11.52;3.33;;;;;;;-2.58;100.00;99867.09;4356372;32;20404;-88
2022/01/18 06:34:49;;;;;;;14.20;4.82;;;;;;;-2.65;100.00;99833.53;4344742;32;20025;-82
2022/01/18 06:37:16;;;;;;;14.73;4.82;;;;;;;-2.53;100.00;99861.38;4350824;32;20063;-87
2022/01/18 06:39:43;;;;;;;17.98;4.70;;;;;;;-2.39;100.00;99878.53;4355766;32;20036;-87
2022/01/18 06:42:11;;;;;;;18.67;5.62;;;;;;;-2.32;100.00;99890.16;4355420;32;20065;-86
2022/01/18 06:44:38;;;;;;;14.80;4.82;;;;;;;-2.25;100.00;99896.53;4353899;33;20320;-82
2022/01/18 06:47:05;;;;;;;11.55;3.95;;;;;;;-2.18;100.00;99907.34;4351950;32;20057;-88
2022/01/18 06:49:32;;;;;;;24.52;4.85;;;;;;;-2.44;100.00;99870.22;4355942;32;20073;-87
2022/01/18 06:51:58;;;;;;;28.12;4.32;;;;;;;-2.23;100.00;99917.50;4356841;32;20058;-88
2022/01/18 06:54:26;;;;;;;15.15;4.07;;;;;;;-2.43;100.00;99879.78;4355382;32;20040;-89
2022/01/18 06:56:53;;;;;;;11.25;4.70;;;;;;;-2.23;100.00;99905.12;4355014;32;20036;-85
2022/01/18 06:59:20;;;;;;;25.80;4.87;;;;;;;-2.10;100.00;99925.09;4355356;32;20052;-86
2022/01/18 07:01:47;;;;;;;13.48;3.80;;;;;;;-2.20;100.00;99928.59;4359210;33;20096;-89
2022/01/18 07:04:14;;;;;;;15.90;4.32;;;;;;;-2.30;100.00;99925.13;4357407;32;20498;-87
2022/01/18 07:06:41;;;;;;;16.95;3.78;;;;;;;-2.12;100.00;99933.16;4354664;32;20047;-86
2022/01/18 07:09:08;;;;;;;15.93;4.15;;;;;;;-2.36;100.00;99902.00;4354222;32;20035;-85
2022/01/18 07:11:35;;;;;;;16.67;4.60;;;;;;;-2.09;100.00;99932.84;4353735;32;20081;-86
2022/01/18 07:14:01;;;;;;;29.45;5.72;;;;;;;-2.13;100.00;99941.19;4355749;32;20085;-87
2022/01/18 07:16:28;;;;;;;31.40;7.53;;;;;;;-2.05;100.00;99946.59;4353577;32;20055;-86
2022/01/18 07:18:55;;;;;;;11.55;4.85;;;;;;;-2.40;100.00;99892.69;4356473;32;20032;-87
2022/01/18 07:21:21;;;;;;;20.42;5.12;;;;;;;-2.05;100.00;99957.13;4354437;32;20455;-83
2022/01/18 07:23:51;;;;;;;19.02;4.80;;;;;;;-2.20;100.00;99956.78;4355845;32;20066;-87
2022/01/18 07:26:17;;;;;;;23.77;5.22;;;;;;;-2.28;100.00;99922.34;4356229;32;20061;-86
2022/01/18 07:28:44;;;;;;;20.08;3.95;;;;;;;-2.03;100.00;99957.81;4354371;32;20082;-87
2022/01/18 07:31:11;;;;;;;24.10;4.90;;;;;;;-2.10;100.00;99962.84;4355429;32;20339;-88
2022/01/18 07:33:39;;;;;;;10.20;3.97;;;;;;;-2.46;100.00;99893.28;4352877;32;20069;-87
2022/01/18 07:36:06;;;;;;;16.48;4.10;;;;;;;-2.20;100.00;99933.03;4355351;32;20081;-88
2022/01/18 07:38:33;;;;;;;13.05;5.00;;;;;;;-1.94;100.00;99983.34;4344098;32;20035;-82
2022/01/18 07:41:00;;;;;;;19.00;3.78;;;;;;;-1.92;100.00;99996.41;4356299;32;20035;-85
2022/01/18 07:43:26;;;;;;;11.68;3.83;;;;;;;-2.05;100.00;99965.06;4358398;32;20087;-86
2022/01/18 07:45:53;;;;;;;13.00;4.10;;;;;;;-1.89;100.00;99996.94;4369846;32;20093;-84
2022/01/18 07:48:22;;;;;;;10.15;3.97;;;;;;;-2.24;100.00;99943.03;4361650;32;20193;-86
2022/01/18 07:50:57;;;;;;;14.40;4.05;;;;;;;-1.91;100.00;100004.19;4353958;32;20056;-84
2022/01/18 07:53:23;;;;;;;9.52;3.72;;;;;;;-1.81;100.00;100011.22;4350209;32;20095;-82
2022/01/18 07:55:51;;;;;;;9.05;3.67;;;;;;;-1.86;100.00;100017.75;4354356;32;20035;-84
2022/01/18 07:58:18;;;;;;;13.62;4.05;;;;;;;-1.86;100.00;99994.00;4354572;32;20505;-84
2022/01/18 08:00:47;;;;;;;15.65;4.75;;;;;;;-2.08;100.00;99955.59;4365071;32;20024;-85
2022/01/18 08:03:14;;;;;;;13.40;4.75;;;;;;;-2.04;100.00;99978.09;4341233;32;20511;-85
2022/01/18 08:05:40;;;;;;;20.27;3.97;;;;;;;-2.13;100.00;99978.16;4368012;32;20065;-85
2022/01/18 08:08:07;;;;;;;14.30;4.32;;;;;;;-1.79;100.00;100054.16;4354939;32;20055;-85
2022/01/18 08:10:34;;;;;;;22.98;4.90;;;;;;;-1.74;100.00;100046.63;4353001;32;20090;-81
2022/01/18 08:13:03;;;;;;;15.85;4.78;;;;;;;-1.87;100.00;100005.56;4353766;32;20085;-83
2022/01/18 08:15:39;;;;;;;17.98;5.07;;;;;;;-1.73;100.00;100013.97;4355271;32;20047;-86
2022/01/18 08:18:12;;;;;;;12.45;4.12;;;;;;;-1.53;100.00;100055.16;4358066;32;20077;-86
2022/01/18 08:20:39;;;;;;;11.52;3.80;;;;;;;-1.55;100.00;100064.19;4359178;32;20028;-85
2022/01/18 08:23:08;;;;;;;18.55;5.25;;;;;;;-1.66;100.00;100044.94;4369350;32;20044;-85
2022/01/18 08:25:44;;;;;;;14.55;4.62;;;;;;;-1.33;100.00;100060.34;4354363;32;20081;-84
2022/01/18 08:28:11;;;;;;;16.02;5.20;;;;;;;-1.65;100.00;99998.22;4355096;32;20043;-77
2022/01/18 08:30:37;;;;;;;15.65;4.65;;;;;;;-1.27;100.00;100065.03;4354053;32;20388;-81
2022/01/18 08:33:04;;;;;;;9.55;3.95;;;;;;;-1.29;100.00;100082.88;4354186;32;20111;-81
2022/01/18 08:35:31;;;;;;;24.63;6.78;;;;;;;-1.41;100.00;100041.75;4357302;32;20043;-80
2022/01/18 08:38:00;;;;;;;8.38;3.83;;;;;;;-1.52;100.00;100040.97;4357239;32;20357;-78
2022/01/18 08:40:28;;;;;;;23.85;3.97;;;;;;;-1.40;100.00;100059.28;4363704;32;20061;-77
2022/01/18 08:42:55;;;;;;;8.15;3.70;;;;;;;-1.25;100.00;100094.78;4364691;32;20349;-77
2022/01/18 08:45:22;;;;;;;11.30;5.25;;;;;;;-1.22;100.00;100077.81;4356459;32;20082;-78
2022/01/18 08:47:49;;;;;;;11.12;4.62;;;;;;;-1.16;100.00;100104.47;4354415;32;20040;-78
2022/01/18 08:50:18;;;;;;;23.52;5.20;;;;;;;-1.05;100.00;100097.31;4364010;32;20040;-79
2022/01/18 08:52:50;;;;;;;11.60;4.25;;;;;;;-1.22;100.00;100115.63;4353966;32;20062;-81
2022/01/18 08:55:21;;;;;;;16.08;4.45;;;;;;;-1.05;100.00;100105.25;4355563;32;20895;-78
2022/01/18 08:57:50;;;;;;;10.02;3.85;;;;;;;-0.95;100.00;100112.16;4354048;32;20058;-78
2022/01/18 09:00:19;;;;;;;20.12;5.55;;;;;;;-1.10;100.00;100121.56;4354493;32;20058;-79
2022/01/18 09:02:47;;;;;;;2.87;1.58;;;;;;;-0.95;100.00;100121.91;4352729;32;20039;-79
2022/01/18 09:05:13;;;;;;;22.87;4.93;;;;;;;-1.06;100.00;100114.19;4353865;32;20907;-79
2022/01/18 09:07:41;;;;;;;14.43;4.53;;;;;;;-0.91;100.00;100123.25;4355986;32;20057;-79
2022/01/18 09:10:10;;;;;;;20.95;6.43;;;;;;;-0.97;100.00;100098.25;4355011;32;20062;-79
2022/01/18 09:12:38;;;;;;;14.20;5.28;;;;;;;-1.15;100.00;100090.28;4352733;32;20085;-80
2022/01/18 09:15:07;;;;;;;17.25;4.78;;;;;;;-1.25;100.00;100078.94;4353527;32;20166;-79
2022/01/18 09:17:35;;;;;;;18.12;4.97;;;;;;;-0.88;100.00;100144.12;4355240;32;20063;-78
2022/01/18 09:20:06;;;;;;;18.20;4.97;;;;;;;-0.85;100.00;100138.53;4354270;32;20054;-79
2022/01/18 09:22:35;;;;;;;9.82;3.85;;;;;;;-0.75;100.00;100156.97;4364422;32;20061;-79
2022/01/18 09:25:04;;;;;;;18.25;3.05;;;;;;;-0.69;100.00;100148.44;4352433;32;20074;-79
2022/01/18 09:27:31;;;;;;;14.57;5.72;;;;;;;-0.82;100.00;100148.81;4353932;32;20047;-79
2022/01/18 09:29:57;;;;;;;12.43;5.55;;;;;;;-0.78;100.00;100142.25;4354932;32;20035;-79
2022/01/18 09:32:26;;;;;;;12.18;3.67;;;;;;;-0.67;100.00;100162.37;4351262;32;20075;-79
2022/01/18 09:34:59;;;;;;;20.90;4.18;;;;;;;-0.67;100.00;100167.69;4353238;32;20416;-77
2022/01/18 09:37:30;;;;;;;11.77;4.72;;;;;;;-0.76;100.00;100148.22;4366451;32;20049;-81
2022/01/18 09:39:56;;;;;;;14.93;4.47;;;;;;;-1.05;100.00;100084.09;4354482;32;20031;-76
2022/01/18 09:42:31;;;;;;;11.85;4.57;;;;;;;-0.64;100.00;100150.66;4351945;32;20091;-78
2022/01/18 09:45:09;;;;;;;13.38;4.82;;;;;;;-0.61;100.00;100160.94;4354326;32;20436;-76
2022/01/18 09:47:38;;;;;;;48.87;14.25;;;;;;;-0.72;100.00;100127.59;4354027;32;20073;-76
2022/01/18 09:50:10;;;;;;;23.65;10.13;;;;;;;-0.41;100.00;100162.47;4353319;32;20052;-76
2022/01/18 09:52:41;;;;;;;16.70;5.28;;;;;;;-0.52;100.00;100167.97;4355925;32;20329;-77
2022/01/18 09:55:23;;;;;;;11.55;4.43;;;;;;;-0.50;100.00;100173.94;4365092;32;20036;-77
2022/01/18 09:57:50;;;;;;;8.60;4.05;;;;;;;-0.47;100.00;100156.97;4352752;32;20031;-77
2022/01/18 10:00:19;;;;;;;21.10;5.78;;;;;;;-0.50;100.00;100157.25;4354602;32;20073;-77
2022/01/18 10:02:47;;;;;;;17.37;5.37;;;;;;;-0.49;100.00;100153.63;4354708;32;20070;-77
2022/01/18 10:05:18;;;;;;;27.67;7.70;;;;;;;-0.26;100.00;100169.88;4354139;32;20079;-76
2022/01/18 10:08:15;;;;;;;21.48;5.05;;;;;;;-0.21;100.00;100183.50;4351832;32;20039;-77
2022/01/18 10:10:48;;;;;;;12.00;3.78;;;;;;;-0.18;100.00;100185.84;4364867;32;20043;-76
2022/01/18 10:13:23;;;;;;;25.30;6.45;;;;;;;-0.38;100.00;100167.47;4352575;32;20420;-78
2022/01/18 10:16:14;;;;;;;55.47;12.93;;;;;;;-0.28;100.00;100158.63;4352349;32;20061;-77
2022/01/18 10:18:54;;;;;;;19.90;6.68;;;;;;;-0.17;100.00;100174.28;4351475;32;20061;-76
2022/01/18 10:21:36;;;;;;;17.48;5.93;;;;;;;-0.16;100.00;100202.41;4353946;32;20430;-76
2022/01/18 10:24:12;;;;;;;19.98;3.70;;;;;;;-0.14;100.00;100204.88;4337555;33;20093;-77
2022/01/18 10:26:43;;;;;;;12.37;3.58;;;;;;;-0.43;100.00;100159.16;4347601;32;20044;-76
2022/01/18 10:29:13;;;;;;;14.40;3.90;;;;;;;-0.25;100.00;100216.56;4354246;32;20035;-76
2022/01/18 10:31:57;;;;;;;13.90;4.72;;;;;;;-0.16;100.00;100199.78;4352837;32;20426;-79
2022/01/18 10:37:11;;;;;;;11.38;3.45;;;;;;;-0.18;100.00;100204.38;4354148;32;20052;-76
2022/01/18 10:39:42;;;;;;;13.38;4.40;;;;;;;-0.22;100.00;100218.91;4354130;32;20047;-76
2022/01/18 10:42:33;;;;;;;13.35;3.80;;;;;;;-0.23;100.00;100217.22;4354232;32;20044;-76
2022/01/18 10:45:31;;;;;;;13.40;3.78;;;;;;;-0.17;100.00;100221.09;4338160;33;20028;-77
2022/01/18 10:48:04;;;;;;;12.50;3.80;;;;;;;-0.07;100.00;100222.66;4365284;32;20036;-74
2022/01/18 10:50:36;;;;;;;9.82;4.10;;;;;;;-0.08;100.00;100236.91;4351336;32;20122;-76
2022/01/18 10:53:12;;;;;;;;;;;;;;;-0.02;100.00;100241.59;4356908;32;20347;-76
2022/01/18 10:55:39;;;;;;;10.52;3.17;;;;;;;0.07;100.00;100223.97;4355999;32;20329;-75
2022/01/18 10:58:14;;;;;;;27.00;6.20;;;;;;;0.03;100.00;100208.53;4354920;32;20047;-78
2022/01/18 11:00:41;;;;;;;16.70;3.83;;;;;;;0.28;100.00;100236.87;4369300;32;20852;-76
2022/01/18 11:03:09;;;;;;;12.50;4.45;;;;;;;0.27;100.00;100247.63;4358628;32;20036;-75
2022/01/18 11:05:43;;;;;;;20.80;5.82;;;;;;;-0.01;100.00;100198.25;4357248;32;20443;-75
2022/01/18 11:08:25;;;;;;;27.25;6.72;;;;;;;0.11;100.00;100204.16;4354685;32;20328;-76
2022/01/18 11:10:51;;;;;;;15.30;6.07;;;;;;;0.31;100.00;100249.81;4357096;32;20031;-75
2022/01/18 11:13:23;;;;;;;16.62;4.60;;;;;;;0.19;100.00;100195.41;4358710;32;20094;-75
2022/01/18 11:16:03;;;;;;;11.32;4.28;;;;;;;0.53;100.00;100240.56;4359637;32;20110;-76
2022/01/18 11:18:37;;;;;;;24.05;6.78;;;;;;;0.26;100.00;100228.25;4357495;32;20035;-79
2022/01/18 11:21:06;;;;;;;20.95;5.28;;;;;;;0.35;100.00;100227.34;4356297;32;20024;-76
2022/01/18 11:23:46;;;;;;;15.77;4.55;;;;;;;0.47;100.00;100240.34;4354896;32;20090;-77
2022/01/18 11:26:17;;;;;;;25.40;5.87;;;;;;;0.60;100.00;100235.47;4368877;32;20028;-75
2022/01/18 11:28:45;;;;;;;27.52;6.50;;;;;;;0.53;100.00;100250.34;4355958;32;20071;-74
2022/01/18 11:31:18;;;;;;;17.27;4.78;;;;;;;0.63;100.00;100229.03;4367007;32;20072;-77
2022/01/18 11:33:55;;;;;;;22.58;5.22;;;;;;;0.47;100.00;100235.06;4357652;32;20055;-76
2022/01/18 11:36:27;;;;;;;18.37;5.18;;;;;;;0.47;100.00;100233.22;4357028;32;20040;-76
2022/01/18 11:38:57;;;;;;;18.17;5.18;;;;;;;0.34;100.00;100191.22;4354918;32;20043;-79
2022/01/18 11:41:29;;;;;;;14.40;4.03;;;;;;;0.50;100.00;100208.25;4358111;32;20043;-76
2022/01/18 11:43:59;;;;;;;17.73;5.75;;;;;;;0.88;100.00;100232.66;4356074;32;20040;-76
2022/01/18 11:46:27;;;;;;;12.13;5.25;;;;;;;0.64;100.00;100199.72;4356853;32;20062;-77
2022/01/18 11:49:03;;;;;;;20.08;5.22;;;;;;;0.77;100.00;100238.25;4354448;32;20062;-76
2022/01/18 11:51:43;;;;;;;13.82;5.32;;;;;;;1.04;100.00;100237.22;4356394;32;20432;-75
2022/01/18 11:57:23;;;;;;;12.25;4.10;;;;;;;1.64;100.00;100244.25;4355934;32;20101;-76
2022/01/18 11:59:56;;;;;;;15.48;3.30;;;;;;;1.61;100.00;100240.09;4353789;32;20043;-78
2022/01/18 12:02:37;;;;;;;15.63;4.95;;;;;;;1.84;100.00;100228.88;4356596;32;20073;-77
2022/01/18 12:05:21;;;;;;;18.92;5.75;;;;;;;1.74;100.00;100223.72;4356176;32;20409;-78
2022/01/18 12:07:57;;;;;;;23.20;4.57;;;;;;;1.36;100.00;100202.03;4356363;32;20055;-77
2022/01/18 12:10:38;;;;;;;20.30;4.47;;;;;;;1.15;100.00;100214.88;4356301;32;20040;-77
2022/01/18 12:13:12;;;;;;;18.15;5.05;;;;;;;0.82;100.00;100206.78;4353876;32;20110;-79
2022/01/18 12:15:46;;;;;;;26.10;7.25;;;;;;;0.85;100.00;100252.38;4355499;32;20845;-77
2022/01/18 12:18:14;;;;;;;18.98;5.95;;;;;;;0.47;100.00;100213.84;4354792;32;20057;-77
2022/01/18 12:20:43;;;;;;;17.35;4.80;;;;;;;0.69;100.00;100258.41;4356069;32;20395;-78
2022/01/18 12:23:24;;;;;;;18.10;4.93;;;;;;;0.49;100.00;100243.66;4352806;32;20050;-79
2022/01/18 12:26:14;;;;;;;18.98;4.60;;;;;;;0.55;100.00;100264.25;4355144;32;20035;-78
2022/01/18 12:29:18;;;;;;;17.02;5.53;;;;;;;0.41;100.00;100227.72;4351279;32;20058;-76
2022/01/18 12:34:29;;;;;;;;;;;;;;;0.18;100.00;100252.88;4352911;32;20075;-76
2022/01/18 12:37:21;;;;;;;20.67;4.87;;;;;;;0.29;100.00;100243.84;4354722;32;19951;-76
2022/01/18 12:39:51;;;;;;;12.82;3.60;;;;;;;0.01;100.00;100207.84;4354685;32;20093;-78